createdAt,value
2023-03-16T00:02:13.218Z,5.50
2023-03-16T00:07:09.939Z,4.32
2023-03-16T00:12:04.980Z,4.75
2023-03-16T00:16:56.721Z,4.28
2023-03-16T00:21:50.233Z,4.78
2023-03-16T00:26:42.359Z,6.00
2023-03-16T00:31:34.704Z,5.93
2023-03-16T00:36:26.323Z,5.00
2023-03-16T00:41:17.945Z,5.60
2023-03-16T00:46:12.567Z,5.72
2023-03-16T00:51:06.711Z,5.15
2023-03-16T00:55:58.479Z,5.68
2023-03-16T01:00:51.370Z,12.23
2023-03-16T01:05:43.172Z,11.63
2023-03-16T01:10:36.218Z,10.77
2023-03-16T01:15:27.789Z,16.17
2023-03-16T01:20:19.901Z,10.73
2023-03-16T01:25:12.790Z,9.80
2023-03-16T01:30:06.213Z,12.02
2023-03-16T01:34:57.805Z,12.13
2023-03-16T01:39:50.305Z,10.68
2023-03-16T01:45:05.800Z,10.10
2023-03-16T01:49:57.641Z,15.23
2023-03-16T01:54:54.397Z,13.48
2023-03-16T01:59:56.533Z,12.05
2023-03-16T02:04:57.197Z,9.50
2023-03-16T02:09:51.789Z,9.00
2023-03-16T02:14:45.641Z,8.82
2023-03-16T02:20:14.478Z,9.95
2023-03-16T02:25:06.606Z,11.13
2023-03-16T02:30:17.057Z,9.88
2023-03-16T02:35:10.483Z,7.75
2023-03-16T02:40:15.466Z,12.15
2023-03-16T02:45:07.652Z,14.20
2023-03-16T02:49:59.337Z,7.55
2023-03-16T02:54:50.920Z,6.45
2023-03-16T02:59:42.565Z,6.82
2023-03-16T03:04:34.187Z,8.13
2023-03-16T03:09:25.803Z,10.02
2023-03-16T03:14:17.389Z,9.23
2023-03-16T03:24:19.303Z,7.80
2023-03-16T03:29:10.962Z,8.02
2023-03-16T03:34:06.718Z,6.63
2023-03-16T03:38:58.428Z,6.65
2023-03-16T03:43:50.050Z,5.05
2023-03-16T03:48:41.624Z,8.32
2023-03-16T03:53:33.314Z,5.57
2023-03-16T03:58:24.957Z,5.45
2023-03-16T04:03:17.865Z,5.15
2023-03-16T04:08:09.588Z,3.33
2023-03-16T04:13:01.278Z,2.33
2023-03-16T04:17:52.883Z,5.15
2023-03-16T04:22:44.782Z,3.08
2023-03-16T04:27:36.704Z,2.95
2023-03-16T04:32:28.318Z,4.55
2023-03-16T04:37:19.954Z,4.10
2023-03-16T04:42:12.526Z,2.60
2023-03-16T04:47:04.116Z,2.10
2023-03-16T04:51:55.867Z,3.38
2023-03-16T04:56:47.472Z,2.33
2023-03-16T05:01:39.203Z,3.25
2023-03-16T05:06:31.252Z,4.00
2023-03-16T05:11:22.890Z,3.00
2023-03-16T05:16:14.599Z,1.55
2023-03-16T05:21:06.456Z,1.83
2023-03-16T05:26:01.103Z,2.25
2023-03-16T05:30:52.848Z,1.92
2023-03-16T05:35:44.543Z,2.47
2023-03-16T05:40:37.402Z,2.63
2023-03-16T05:45:29.103Z,1.38
2023-03-16T05:50:20.828Z,3.45
2023-03-16T05:55:14.987Z,2.83
2023-03-16T06:00:18.345Z,2.38
2023-03-16T06:05:11.248Z,1.92
2023-03-16T06:10:03.205Z,1.85
2023-03-16T06:14:54.875Z,2.10
2023-03-16T06:19:46.612Z,2.35
2023-03-16T06:24:38.311Z,2.70
2023-03-16T06:29:31.169Z,2.35
2023-03-16T06:34:22.826Z,4.38
2023-03-16T06:39:14.664Z,4.47
2023-03-16T06:44:06.381Z,5.00
2023-03-16T06:48:58.011Z,5.20
2023-03-16T06:53:49.577Z,5.05
2023-03-16T06:58:41.871Z,8.45
2023-03-16T07:03:33.765Z,3.35
2023-03-16T07:08:25.646Z,6.13
2023-03-16T07:13:17.805Z,3.75
2023-03-16T07:18:09.402Z,2.53
2023-03-16T07:23:00.982Z,5.35
2023-03-16T07:27:52.742Z,6.70
2023-03-16T07:32:44.483Z,3.05
2023-03-16T07:37:37.118Z,3.45
2023-03-16T07:42:28.736Z,3.17
2023-03-16T07:47:20.500Z,4.00
2023-03-16T07:52:15.493Z,2.97
2023-03-16T07:57:08.205Z,0.95
2023-03-16T08:01:59.839Z,4.72
2023-03-16T08:07:00.303Z,2.05
2023-03-16T08:11:51.947Z,2.00
2023-03-16T08:16:43.674Z,4.47
2023-03-16T08:21:45.766Z,4.55
2023-03-16T08:26:48.100Z,2.30
2023-03-16T08:31:42.911Z,4.03
2023-03-16T08:36:34.641Z,3.70
2023-03-16T08:41:26.250Z,3.25
2023-03-16T08:46:17.863Z,4.03
2023-03-16T08:51:10.524Z,3.38
2023-03-16T08:56:07.278Z,7.28
2023-03-16T09:00:59.719Z,2.55
2023-03-16T09:05:51.386Z,7.57
2023-03-16T09:10:43.371Z,1.67
2023-03-16T09:15:35.575Z,1.55
2023-03-16T09:20:30.065Z,3.38
2023-03-16T09:25:22.782Z,1.27
2023-03-16T09:30:15.332Z,3.75
2023-03-16T09:35:07.371Z,3.25
2023-03-16T09:40:06.499Z,6.32
2023-03-16T09:45:26.250Z,2.72
2023-03-16T09:50:28.105Z,4.47
2023-03-16T09:55:31.499Z,3.53
2023-03-16T10:00:27.660Z,3.78
2023-03-16T10:05:24.282Z,2.88
2023-03-16T10:10:23.733Z,2.55
2023-03-16T10:15:19.523Z,4.57
2023-03-16T10:20:17.622Z,2.20
2023-03-16T10:30:29.396Z,5.00
2023-03-16T10:35:24.045Z,5.75
2023-03-16T10:40:16.396Z,6.18
2023-03-16T10:45:25.548Z,4.13
2023-03-16T10:50:25.170Z,5.90
2023-03-16T10:55:24.055Z,6.68
2023-03-16T11:00:22.257Z,4.53
2023-03-16T11:05:17.979Z,5.45
2023-03-16T11:10:36.252Z,4.47
2023-03-16T11:15:45.752Z,4.38
2023-03-16T11:20:38.796Z,5.90
2023-03-16T11:25:51.887Z,5.82
2023-03-16T11:31:08.585Z,6.32
2023-03-16T11:36:39.057Z,3.88
2023-03-16T11:41:45.912Z,4.53
2023-03-16T11:46:42.781Z,5.82
2023-03-16T11:51:53.678Z,8.00
2023-03-16T11:56:54.851Z,4.88
2023-03-16T12:02:07.623Z,2.22
2023-03-16T12:07:30.332Z,6.18
2023-03-16T12:12:53.876Z,2.83
2023-03-16T12:17:46.752Z,4.05
2023-03-16T12:22:44.532Z,2.78
2023-03-16T12:27:40.104Z,2.75
2023-03-16T12:32:53.541Z,4.90
2023-03-16T12:37:57.634Z,3.60
2023-03-16T12:43:17.753Z,4.65
2023-03-16T12:48:21.220Z,1.80
2023-03-16T12:53:40.532Z,3.60
2023-03-16T12:58:33.065Z,2.47
2023-03-16T13:03:25.928Z,2.85
2023-03-16T13:08:21.057Z,1.33
2023-03-16T13:13:16.174Z,2.47
2023-03-16T13:18:20.222Z,2.53
2023-03-16T13:23:24.143Z,1.35
2023-03-16T13:28:17.287Z,0.88
2023-03-16T13:33:22.966Z,1.27
2023-03-16T13:38:16.574Z,1.67
2023-03-16T13:43:15.978Z,3.90
2023-03-16T13:48:13.235Z,2.67
2023-03-16T13:53:13.908Z,1.23
2023-03-16T13:58:05.964Z,1.95
2023-03-16T14:02:59.453Z,2.28
2023-03-16T14:07:52.260Z,1.92
2023-03-16T14:12:54.814Z,2.45
2023-03-16T14:17:47.012Z,1.77
2023-03-16T14:22:38.888Z,3.70
2023-03-16T14:27:39.842Z,3.63
2023-03-16T14:32:33.587Z,2.08
2023-03-16T14:37:35.775Z,2.67
2023-03-16T14:42:30.929Z,4.18
2023-03-16T14:47:33.806Z,3.72
2023-03-16T14:52:34.600Z,5.03
2023-03-16T14:57:27.075Z,3.72
2023-03-16T15:02:31.968Z,3.13
2023-03-16T15:07:31.400Z,2.85
2023-03-16T15:12:25.265Z,3.55
2023-03-16T15:17:16.910Z,5.78
2023-03-16T15:22:12.562Z,5.20
2023-03-16T15:27:04.485Z,3.42
2023-03-16T15:31:56.180Z,5.20
2023-03-16T15:36:47.877Z,3.00
2023-03-16T15:41:47.481Z,5.32
2023-03-16T15:46:39.548Z,3.20
2023-03-16T15:51:31.660Z,2.80
2023-03-16T15:56:30.003Z,2.95
2023-03-16T16:01:25.781Z,2.95
2023-03-16T16:06:17.581Z,2.83
2023-03-16T16:11:29.655Z,4.70
2023-03-16T16:16:21.349Z,4.05
2023-03-16T16:21:17.194Z,4.28
2023-03-16T16:26:21.753Z,5.47
2023-03-16T16:31:14.396Z,3.85
2023-03-16T16:36:12.203Z,4.03
2023-03-16T16:41:09.292Z,1.92
2023-03-16T16:46:04.883Z,3.95
2023-03-16T16:50:56.732Z,3.58
2023-03-16T16:55:48.652Z,2.53
2023-03-16T17:00:42.431Z,3.22
2023-03-16T17:05:34.346Z,3.35
2023-03-16T17:10:27.852Z,2.38
2023-03-16T17:15:28.485Z,3.88
2023-03-16T17:20:25.397Z,6.07
2023-03-16T17:25:17.292Z,4.80
2023-03-16T17:30:30.359Z,2.65
2023-03-16T17:35:22.726Z,1.45
2023-03-16T17:40:20.926Z,3.08
2023-03-16T17:45:22.385Z,4.70
2023-03-16T17:50:25.115Z,2.88
2023-03-16T17:55:20.443Z,2.88
2023-03-16T18:00:32.479Z,4.13
2023-03-16T18:05:29.646Z,2.80
2023-03-16T18:10:25.181Z,4.80
2023-03-16T18:15:18.722Z,2.28
2023-03-16T18:20:31.140Z,4.05
2023-03-16T18:25:36.317Z,2.30
2023-03-16T18:30:29.425Z,3.28
2023-03-16T18:35:21.559Z,2.03
2023-03-16T18:40:15.971Z,2.97
2023-03-16T18:45:11.798Z,3.78
2023-03-16T18:50:03.610Z,4.15
2023-03-16T18:54:55.800Z,2.85
2023-03-16T18:59:47.416Z,3.53
2023-03-16T19:04:39.783Z,3.17
2023-03-16T19:09:32.532Z,3.25
2023-03-16T19:14:31.698Z,2.63
2023-03-16T19:19:24.850Z,3.25
2023-03-16T19:24:44.136Z,4.47
2023-03-16T19:29:36.416Z,2.80
2023-03-16T19:34:28.676Z,3.08
2023-03-16T19:39:20.975Z,4.10
2023-03-16T19:44:17.958Z,5.88
2023-03-16T19:49:16.896Z,3.58
2023-03-16T19:54:21.253Z,4.57
2023-03-16T19:59:12.948Z,5.78
2023-03-16T20:04:04.748Z,5.13
2023-03-16T20:08:56.486Z,3.65
2023-03-16T20:13:49.088Z,5.30
2023-03-16T20:18:40.669Z,5.72
2023-03-16T20:23:32.686Z,7.95
2023-03-16T20:28:32.888Z,5.93
2023-03-16T20:33:26.067Z,5.68
2023-03-16T20:38:17.809Z,6.25
2023-03-16T20:43:23.979Z,6.32
2023-03-16T20:48:15.893Z,7.75
2023-03-16T20:53:08.672Z,6.43
2023-03-16T20:58:01.448Z,8.43
2023-03-16T21:02:54.974Z,8.32
2023-03-16T21:07:46.876Z,5.90
2023-03-16T21:12:42.280Z,6.68
2023-03-16T21:17:37.891Z,7.53
2023-03-16T21:22:37.617Z,7.15
2023-03-16T21:27:32.570Z,9.63
2023-03-16T21:32:27.268Z,10.48
2023-03-16T21:37:28.454Z,5.70
2023-03-16T21:42:20.494Z,6.25
2023-03-16T21:47:29.146Z,6.80
2023-03-16T21:52:31.258Z,9.00
2023-03-16T21:57:23.143Z,9.18
2023-03-16T22:02:26.117Z,6.75
2023-03-16T22:07:18.481Z,5.93
2023-03-16T22:12:14.036Z,6.28
2023-03-16T22:17:07.510Z,5.82
2023-03-16T22:21:59.508Z,8.65
2023-03-16T22:26:52.033Z,7.18
2023-03-16T22:31:43.725Z,5.15
2023-03-16T22:36:35.484Z,10.18
2023-03-16T22:41:29.200Z,6.93
2023-03-16T22:46:24.377Z,7.45
2023-03-16T22:51:24.154Z,9.95
2023-03-16T22:56:15.975Z,7.30
2023-03-16T23:01:17.893Z,8.18
2023-03-16T23:06:21.958Z,9.15
2023-03-16T23:11:19.248Z,8.55
2023-03-16T23:16:21.345Z,7.10
2023-03-16T23:21:15.639Z,11.27
2023-03-16T23:26:20.278Z,7.72
2023-03-16T23:31:14.902Z,8.02
2023-03-16T23:36:14.569Z,10.75
2023-03-16T23:41:06.934Z,5.47
2023-03-16T23:45:58.778Z,6.00
2023-03-16T23:50:54.894Z,5.78
2023-03-16T23:55:48.302Z,7.03
